sensor_id;sensor_type;location;lat;lon;timestamp;temperature;humidity
20319;DHT22;10317;47.254;11.314;2023-06-22T00:01:48;18.80;99.90
20319;DHT22;10317;47.254;11.314;2023-06-22T00:04:14;18.80;99.90
20319;DHT22;10317;47.254;11.314;2023-06-22T00:06:39;18.70;99.90
20319;DHT22;10317;47.254;11.314;2023-06-22T00:09:05;18.80;99.90
20319;DHT22;10317;47.254;11.314;2023-06-22T00:11:32;18.70;99.90
20319;DHT22;10317;47.254;11.314;2023-06-22T00:13:58;18.80;99.90
20319;DHT22;10317;47.254;11.314;2023-06-22T00:16:24;18.70;99.90
20319;DHT22;10317;47.254;11.314;2023-06-22T00:18:49;18.80;99.90
20319;DHT22;10317;47.254;11.314;2023-06-22T00:21:15;18.70;99.90
20319;DHT22;10317;47.254;11.314;2023-06-22T00:23:41;18.70;99.90
20319;DHT22;10317;47.254;11.314;2023-06-22T00:26:06;18.70;99.90
20319;DHT22;10317;47.254;11.314;2023-06-22T00:28:32;18.60;99.90
20319;DHT22;10317;47.254;11.314;2023-06-22T00:30:57;18.60;99.90
20319;DHT22;10317;47.254;11.314;2023-06-22T00:33:23;18.60;99.90
20319;DHT22;10317;47.254;11.314;2023-06-22T00:35:48;18.60;99.90
20319;DHT22;10317;47.254;11.314;2023-06-22T00:38:17;18.60;99.90
20319;DHT22;10317;47.254;11.314;2023-06-22T00:40:43;18.60;99.90
20319;DHT22;10317;47.254;11.314;2023-06-22T00:43:09;18.60;99.90
20319;DHT22;10317;47.254;11.314;2023-06-22T00:45:34;18.50;99.90
20319;DHT22;10317;47.254;11.314;2023-06-22T00:48:00;18.60;99.90
20319;DHT22;10317;47.254;11.314;2023-06-22T00:50:27;18.50;99.90
20319;DHT22;10317;47.254;11.314;2023-06-22T00:52:57;18.50;99.90
20319;DHT22;10317;47.254;11.314;2023-06-22T00:55:23;18.50;99.90
20319;DHT22;10317;47.254;11.314;2023-06-22T00:57:51;18.40;99.90
20319;DHT22;10317;47.254;11.314;2023-06-22T01:00:21;18.40;99.90
20319;DHT22;10317;47.254;11.314;2023-06-22T01:02:47;18.40;99.90
20319;DHT22;10317;47.254;11.314;2023-06-22T01:05:17;18.40;99.90
20319;DHT22;10317;47.254;11.314;2023-06-22T01:11:03;18.40;99.90
20319;DHT22;10317;47.254;11.314;2023-06-22T01:13:25;18.30;99.90
20319;DHT22;10317;47.254;11.314;2023-06-22T01:15:49;18.30;99.90
20319;DHT22;10317;47.254;11.314;2023-06-22T01:18:17;18.30;99.90
20319;DHT22;10317;47.254;11.314;2023-06-22T01:20:42;18.30;99.90
20319;DHT22;10317;47.254;11.314;2023-06-22T01:23:10;18.30;99.90
20319;DHT22;10317;47.254;11.314;2023-06-22T01:28:05;18.20;99.90
20319;DHT22;10317;47.254;11.314;2023-06-22T01:30:31;18.20;99.90
20319;DHT22;10317;47.254;11.314;2023-06-22T01:32:59;18.10;99.90
20319;DHT22;10317;47.254;11.314;2023-06-22T01:35:25;18.10;99.90
20319;DHT22;10317;47.254;11.314;2023-06-22T01:37:51;18.20;99.90
20319;DHT22;10317;47.254;11.314;2023-06-22T01:40:17;18.10;99.90
20319;DHT22;10317;47.254;11.314;2023-06-22T01:42:43;18.00;99.90
20319;DHT22;10317;47.254;11.314;2023-06-22T01:45:10;18.00;99.90
20319;DHT22;10317;47.254;11.314;2023-06-22T01:47:36;18.00;99.90
20319;DHT22;10317;47.254;11.314;2023-06-22T01:50:02;17.90;99.90
20319;DHT22;10317;47.254;11.314;2023-06-22T01:52:28;17.90;99.90
20319;DHT22;10317;47.254;11.314;2023-06-22T01:54:54;17.90;99.90
20319;DHT22;10317;47.254;11.314;2023-06-22T01:57:19;17.80;99.90
20319;DHT22;10317;47.254;11.314;2023-06-22T02:00:19;17.80;99.90
20319;DHT22;10317;47.254;11.314;2023-06-22T02:03:21;17.80;99.90
20319;DHT22;10317;47.254;11.314;2023-06-22T02:05:26;17.80;99.90
20319;DHT22;10317;47.254;11.314;2023-06-22T02:08:15;17.70;99.90
20319;DHT22;10317;47.254;11.314;2023-06-22T02:10:43;17.70;99.90
20319;DHT22;10317;47.254;11.314;2023-06-22T02:13:09;17.70;99.90
20319;DHT22;10317;47.254;11.314;2023-06-22T02:15:36;17.70;99.90
20319;DHT22;10317;47.254;11.314;2023-06-22T02:18:01;17.70;99.90
20319;DHT22;10317;47.254;11.314;2023-06-22T02:20:27;17.70;99.90
20319;DHT22;10317;47.254;11.314;2023-06-22T02:22:53;17.70;99.90
20319;DHT22;10317;47.254;11.314;2023-06-22T02:25:18;17.70;99.90
20319;DHT22;10317;47.254;11.314;2023-06-22T02:27:45;17.60;99.90
20319;DHT22;10317;47.254;11.314;2023-06-22T02:30:12;17.60;99.90
20319;DHT22;10317;47.254;11.314;2023-06-22T02:32:40;17.60;99.90
20319;DHT22;10317;47.254;11.314;2023-06-22T02:35:08;17.60;99.90
20319;DHT22;10317;47.254;11.314;2023-06-22T02:37:34;17.60;99.90
20319;DHT22;10317;47.254;11.314;2023-06-22T02:40:00;17.60;99.90
20319;DHT22;10317;47.254;11.314;2023-06-22T02:42:26;17.60;99.90
20319;DHT22;10317;47.254;11.314;2023-06-22T02:44:51;17.60;99.90
20319;DHT22;10317;47.254;11.314;2023-06-22T02:47:17;17.60;99.90
20319;DHT22;10317;47.254;11.314;2023-06-22T02:49:42;17.60;99.90
20319;DHT22;10317;47.254;11.314;2023-06-22T02:52:10;17.60;99.90
20319;DHT22;10317;47.254;11.314;2023-06-22T02:54:35;17.60;99.90
20319;DHT22;10317;47.254;11.314;2023-06-22T02:57:01;17.60;99.90
20319;DHT22;10317;47.254;11.314;2023-06-22T02:59:29;17.60;99.90
20319;DHT22;10317;47.254;11.314;2023-06-22T03:01:55;17.60;99.90
20319;DHT22;10317;47.254;11.314;2023-06-22T03:04:21;17.60;99.90
20319;DHT22;10317;47.254;11.314;2023-06-22T03:06:46;17.60;99.90
20319;DHT22;10317;47.254;11.314;2023-06-22T03:09:16;17.60;99.90
20319;DHT22;10317;47.254;11.314;2023-06-22T03:11:41;17.60;99.90
20319;DHT22;10317;47.254;11.314;2023-06-22T03:14:07;17.60;99.90
20319;DHT22;10317;47.254;11.314;2023-06-22T03:16:33;17.60;99.90
20319;DHT22;10317;47.254;11.314;2023-06-22T03:18:59;17.60;99.90
20319;DHT22;10317;47.254;11.314;2023-06-22T03:21:27;17.70;99.90
20319;DHT22;10317;47.254;11.314;2023-06-22T03:23:53;17.60;99.90
20319;DHT22;10317;47.254;11.314;2023-06-22T03:26:19;17.60;99.90
20319;DHT22;10317;47.254;11.314;2023-06-22T03:28:44;17.60;99.90
20319;DHT22;10317;47.254;11.314;2023-06-22T03:31:10;17.60;99.90
20319;DHT22;10317;47.254;11.314;2023-06-22T03:33:36;17.60;99.90
20319;DHT22;10317;47.254;11.314;2023-06-22T03:36:02;17.50;99.90
20319;DHT22;10317;47.254;11.314;2023-06-22T03:38:27;17.60;99.90
20319;DHT22;10317;47.254;11.314;2023-06-22T03:40:53;17.60;99.90
20319;DHT22;10317;47.254;11.314;2023-06-22T03:43:18;17.60;99.90
20319;DHT22;10317;47.254;11.314;2023-06-22T03:45:44;17.60;99.90
20319;DHT22;10317;47.254;11.314;2023-06-22T03:48:11;17.70;99.90
20319;DHT22;10317;47.254;11.314;2023-06-22T03:50:36;17.70;99.90
20319;DHT22;10317;47.254;11.314;2023-06-22T03:53:02;17.80;99.90
20319;DHT22;10317;47.254;11.314;2023-06-22T03:55:27;17.80;99.90
20319;DHT22;10317;47.254;11.314;2023-06-22T03:57:53;17.80;99.90
20319;DHT22;10317;47.254;11.314;2023-06-22T04:00:22;17.90;99.90
20319;DHT22;10317;47.254;11.314;2023-06-22T04:02:48;17.90;99.90
20319;DHT22;10317;47.254;11.314;2023-06-22T04:05:13;17.90;99.90
20319;DHT22;10317;47.254;11.314;2023-06-22T04:07:39;18.00;99.90
20319;DHT22;10317;47.254;11.314;2023-06-22T04:10:05;18.00;99.90
20319;DHT22;10317;47.254;11.314;2023-06-22T04:12:30;18.10;99.90
20319;DHT22;10317;47.254;11.314;2023-06-22T04:14:56;18.10;99.90
20319;DHT22;10317;47.254;11.314;2023-06-22T04:17:21;18.20;99.90
20319;DHT22;10317;47.254;11.314;2023-06-22T04:19:50;18.10;99.90
20319;DHT22;10317;47.254;11.314;2023-06-22T04:22:15;18.20;99.90
20319;DHT22;10317;47.254;11.314;2023-06-22T04:24:41;18.20;99.90
20319;DHT22;10317;47.254;11.314;2023-06-22T04:27:06;18.20;99.90
20319;DHT22;10317;47.254;11.314;2023-06-22T04:29:32;18.20;99.90
20319;DHT22;10317;47.254;11.314;2023-06-22T04:31:58;18.20;99.90
20319;DHT22;10317;47.254;11.314;2023-06-22T04:34:24;18.30;99.90
20319;DHT22;10317;47.254;11.314;2023-06-22T04:36:52;18.30;99.90
20319;DHT22;10317;47.254;11.314;2023-06-22T04:39:18;18.30;99.90
20319;DHT22;10317;47.254;11.314;2023-06-22T04:41:44;18.40;99.90
20319;DHT22;10317;47.254;11.314;2023-06-22T04:46:36;18.50;99.90
20319;DHT22;10317;47.254;11.314;2023-06-22T04:49:09;18.50;99.90
20319;DHT22;10317;47.254;11.314;2023-06-22T04:51:38;18.60;99.90
20319;DHT22;10317;47.254;11.314;2023-06-22T04:54:04;18.70;99.90
20319;DHT22;10317;47.254;11.314;2023-06-22T04:56:31;18.70;99.90
20319;DHT22;10317;47.254;11.314;2023-06-22T04:58:56;18.70;99.90
20319;DHT22;10317;47.254;11.314;2023-06-22T05:01:23;18.80;99.90
20319;DHT22;10317;47.254;11.314;2023-06-22T05:03:48;18.80;99.90
20319;DHT22;10317;47.254;11.314;2023-06-22T05:06:14;18.90;99.90
20319;DHT22;10317;47.254;11.314;2023-06-22T05:08:40;19.00;99.90
20319;DHT22;10317;47.254;11.314;2023-06-22T05:11:06;18.90;99.90
20319;DHT22;10317;47.254;11.314;2023-06-22T05:13:32;19.00;99.90
20319;DHT22;10317;47.254;11.314;2023-06-22T05:15:57;19.00;99.90
20319;DHT22;10317;47.254;11.314;2023-06-22T05:18:30;19.10;99.90
20319;DHT22;10317;47.254;11.314;2023-06-22T05:20:55;19.10;99.90
20319;DHT22;10317;47.254;11.314;2023-06-22T05:23:21;19.20;99.90
20319;DHT22;10317;47.254;11.314;2023-06-22T05:25:47;19.50;99.90
20319;DHT22;10317;47.254;11.314;2023-06-22T05:28:12;19.80;99.90
20319;DHT22;10317;47.254;11.314;2023-06-22T05:30:38;19.80;99.90
20319;DHT22;10317;47.254;11.314;2023-06-22T05:33:03;19.70;99.90
20319;DHT22;10317;47.254;11.314;2023-06-22T05:35:29;19.60;99.90
20319;DHT22;10317;47.254;11.314;2023-06-22T05:37:55;19.60;99.90
20319;DHT22;10317;47.254;11.314;2023-06-22T05:40:20;19.60;99.90
20319;DHT22;10317;47.254;11.314;2023-06-22T05:42:46;19.60;99.90
20319;DHT22;10317;47.254;11.314;2023-06-22T05:45:13;19.70;99.90
20319;DHT22;10317;47.254;11.314;2023-06-22T05:47:38;19.70;99.90
20319;DHT22;10317;47.254;11.314;2023-06-22T05:50:04;19.70;99.90
20319;DHT22;10317;47.254;11.314;2023-06-22T05:52:32;19.80;99.90
20319;DHT22;10317;47.254;11.314;2023-06-22T05:54:57;19.80;99.90
20319;DHT22;10317;47.254;11.314;2023-06-22T05:57:23;19.70;99.90
20319;DHT22;10317;47.254;11.314;2023-06-22T05:59:48;19.80;99.90
20319;DHT22;10317;47.254;11.314;2023-06-22T06:02:14;19.80;99.90
20319;DHT22;10317;47.254;11.314;2023-06-22T06:04:40;19.90;99.90
20319;DHT22;10317;47.254;11.314;2023-06-22T06:07:05;19.90;99.90
20319;DHT22;10317;47.254;11.314;2023-06-22T06:09:31;20.00;99.90
20319;DHT22;10317;47.254;11.314;2023-06-22T06:11:56;20.20;99.90
20319;DHT22;10317;47.254;11.314;2023-06-22T06:14:22;20.30;99.90
20319;DHT22;10317;47.254;11.314;2023-06-22T06:16:48;20.40;99.90
20319;DHT22;10317;47.254;11.314;2023-06-22T06:19:14;20.60;99.90
20319;DHT22;10317;47.254;11.314;2023-06-22T06:21:39;21.00;99.90
20319;DHT22;10317;47.254;11.314;2023-06-22T06:24:05;21.50;99.90
20319;DHT22;10317;47.254;11.314;2023-06-22T06:26:31;22.10;99.90
20319;DHT22;10317;47.254;11.314;2023-06-22T06:28:59;22.60;99.90
20319;DHT22;10317;47.254;11.314;2023-06-22T06:31:25;23.10;99.90
20319;DHT22;10317;47.254;11.314;2023-06-22T06:33:54;23.30;99.90
20319;DHT22;10317;47.254;11.314;2023-06-22T06:36:19;23.20;99.90
20319;DHT22;10317;47.254;11.314;2023-06-22T06:38:45;23.40;99.90
20319;DHT22;10317;47.254;11.314;2023-06-22T06:41:13;23.50;99.90
20319;DHT22;10317;47.254;11.314;2023-06-22T06:43:38;23.50;99.90
20319;DHT22;10317;47.254;11.314;2023-06-22T06:46:04;23.10;99.90
20319;DHT22;10317;47.254;11.314;2023-06-22T06:48:30;22.60;99.90
20319;DHT22;10317;47.254;11.314;2023-06-22T06:50:55;22.40;99.90
20319;DHT22;10317;47.254;11.314;2023-06-22T06:53:21;22.30;99.90
20319;DHT22;10317;47.254;11.314;2023-06-22T06:55:46;22.30;99.90
20319;DHT22;10317;47.254;11.314;2023-06-22T06:58:12;22.70;99.90
20319;DHT22;10317;47.254;11.314;2023-06-22T07:00:38;23.20;99.90
20319;DHT22;10317;47.254;11.314;2023-06-22T07:03:04;23.80;99.90
20319;DHT22;10317;47.254;11.314;2023-06-22T07:05:30;24.40;99.90
20319;DHT22;10317;47.254;11.314;2023-06-22T07:07:55;24.70;99.90
20319;DHT22;10317;47.254;11.314;2023-06-22T07:10:21;24.90;99.90
20319;DHT22;10317;47.254;11.314;2023-06-22T07:12:47;25.50;99.90
20319;DHT22;10317;47.254;11.314;2023-06-22T07:15:13;25.70;99.90
20319;DHT22;10317;47.254;11.314;2023-06-22T07:17:38;26.10;99.90
20319;DHT22;10317;47.254;11.314;2023-06-22T07:20:06;26.20;99.90
20319;DHT22;10317;47.254;11.314;2023-06-22T07:22:35;26.70;99.90
20319;DHT22;10317;47.254;11.314;2023-06-22T07:25:00;26.90;99.90
20319;DHT22;10317;47.254;11.314;2023-06-22T07:27:26;26.70;99.90
20319;DHT22;10317;47.254;11.314;2023-06-22T07:29:52;27.20;99.90
20319;DHT22;10317;47.254;11.314;2023-06-22T07:32:20;27.50;99.90
20319;DHT22;10317;47.254;11.314;2023-06-22T07:34:45;28.10;98.50
20319;DHT22;10317;47.254;11.314;2023-06-22T07:37:11;28.30;97.10
20319;DHT22;10317;47.254;11.314;2023-06-22T07:39:36;28.40;95.90
20319;DHT22;10317;47.254;11.314;2023-06-22T07:42:03;28.50;96.20
20319;DHT22;10317;47.254;11.314;2023-06-22T07:44:28;28.60;93.90
20319;DHT22;10317;47.254;11.314;2023-06-22T07:46:54;29.10;94.20
20319;DHT22;10317;47.254;11.314;2023-06-22T07:49:19;29.50;93.60
20319;DHT22;10317;47.254;11.314;2023-06-22T07:51:45;29.70;92.50
20319;DHT22;10317;47.254;11.314;2023-06-22T07:54:10;29.80;90.90
20319;DHT22;10317;47.254;11.314;2023-06-22T07:56:36;29.50;90.60
20319;DHT22;10317;47.254;11.314;2023-06-22T07:59:02;29.20;91.60
20319;DHT22;10317;47.254;11.314;2023-06-22T08:01:29;28.70;92.10
20319;DHT22;10317;47.254;11.314;2023-06-22T08:03:54;28.40;91.80
20319;DHT22;10317;47.254;11.314;2023-06-22T08:06:20;28.50;92.40
20319;DHT22;10317;47.254;11.314;2023-06-22T08:08:45;28.70;93.70
20319;DHT22;10317;47.254;11.314;2023-06-22T08:11:13;28.80;92.20
20319;DHT22;10317;47.254;11.314;2023-06-22T08:13:38;28.70;93.00
20319;DHT22;10317;47.254;11.314;2023-06-22T08:16:04;28.40;94.60
20319;DHT22;10317;47.254;11.314;2023-06-22T08:18:30;27.70;95.70
20319;DHT22;10317;47.254;11.314;2023-06-22T08:20:55;27.50;95.70
20319;DHT22;10317;47.254;11.314;2023-06-22T08:23:21;27.60;97.30
20319;DHT22;10317;47.254;11.314;2023-06-22T08:25:46;27.40;95.20
20319;DHT22;10317;47.254;11.314;2023-06-22T08:28:13;27.20;95.30
20319;DHT22;10317;47.254;11.314;2023-06-22T08:30:38;27.00;96.30
20319;DHT22;10317;47.254;11.314;2023-06-22T08:33:04;26.90;97.10
20319;DHT22;10317;47.254;11.314;2023-06-22T08:35:30;26.50;97.40
20319;DHT22;10317;47.254;11.314;2023-06-22T08:37:55;26.30;98.70
20319;DHT22;10317;47.254;11.314;2023-06-22T08:40:22;26.30;99.90
20319;DHT22;10317;47.254;11.314;2023-06-22T08:42:48;26.40;99.90
20319;DHT22;10317;47.254;11.314;2023-06-22T08:45:14;26.60;99.90
20319;DHT22;10317;47.254;11.314;2023-06-22T08:47:40;27.00;98.60
20319;DHT22;10317;47.254;11.314;2023-06-22T08:50:09;27.30;98.70
20319;DHT22;10317;47.254;11.314;2023-06-22T08:52:35;27.30;97.30
20319;DHT22;10317;47.254;11.314;2023-06-22T08:55:00;27.40;99.50
20319;DHT22;10317;47.254;11.314;2023-06-22T08:57:28;27.40;99.90
20319;DHT22;10317;47.254;11.314;2023-06-22T08:59:55;27.30;97.50
20319;DHT22;10317;47.254;11.314;2023-06-22T09:02:24;27.20;99.50
20319;DHT22;10317;47.254;11.314;2023-06-22T09:04:49;27.20;99.90
20319;DHT22;10317;47.254;11.314;2023-06-22T09:07:21;27.10;99.90
20319;DHT22;10317;47.254;11.314;2023-06-22T09:09:48;26.80;99.90
20319;DHT22;10317;47.254;11.314;2023-06-22T09:12:14;26.90;99.90
20319;DHT22;10317;47.254;11.314;2023-06-22T09:14:39;26.70;99.90
20319;DHT22;10317;47.254;11.314;2023-06-22T09:17:05;26.90;99.90
20319;DHT22;10317;47.254;11.314;2023-06-22T09:19:31;26.90;99.90
20319;DHT22;10317;47.254;11.314;2023-06-22T09:21:56;27.00;99.90
20319;DHT22;10317;47.254;11.314;2023-06-22T09:24:22;27.10;99.60
20319;DHT22;10317;47.254;11.314;2023-06-22T09:26:48;27.20;99.90
20319;DHT22;10317;47.254;11.314;2023-06-22T09:29:13;27.40;99.90
20319;DHT22;10317;47.254;11.314;2023-06-22T09:31:39;28.10;99.90
20319;DHT22;10317;47.254;11.314;2023-06-22T09:34:04;28.70;97.50
20319;DHT22;10317;47.254;11.314;2023-06-22T09:36:30;29.40;97.70
20319;DHT22;10317;47.254;11.314;2023-06-22T09:38:56;29.90;96.40
20319;DHT22;10317;47.254;11.314;2023-06-22T09:41:24;30.30;94.40
20319;DHT22;10317;47.254;11.314;2023-06-22T09:43:50;30.70;93.60
20319;DHT22;10317;47.254;11.314;2023-06-22T09:46:16;30.60;92.40
20319;DHT22;10317;47.254;11.314;2023-06-22T09:48:41;30.40;93.10
20319;DHT22;10317;47.254;11.314;2023-06-22T09:51:07;30.20;92.30
20319;DHT22;10317;47.254;11.314;2023-06-22T09:53:33;30.30;95.10
20319;DHT22;10317;47.254;11.314;2023-06-22T09:56:00;30.40;96.50
20319;DHT22;10317;47.254;11.314;2023-06-22T09:58:25;30.70;96.70
20319;DHT22;10317;47.254;11.314;2023-06-22T10:00:51;30.80;95.30
20319;DHT22;10317;47.254;11.314;2023-06-22T10:03:16;30.50;92.90
20319;DHT22;10317;47.254;11.314;2023-06-22T10:05:42;30.80;90.60
20319;DHT22;10317;47.254;11.314;2023-06-22T10:08:08;30.80;90.10
20319;DHT22;10317;47.254;11.314;2023-06-22T10:10:35;30.90;86.10
20319;DHT22;10317;47.254;11.314;2023-06-22T10:13:04;30.80;85.10
20319;DHT22;10317;47.254;11.314;2023-06-22T10:15:32;30.60;92.90
20319;DHT22;10317;47.254;11.314;2023-06-22T10:17:58;30.70;92.30
20319;DHT22;10317;47.254;11.314;2023-06-22T10:20:23;30.60;92.40
20319;DHT22;10317;47.254;11.314;2023-06-22T10:22:49;30.50;93.80
20319;DHT22;10317;47.254;11.314;2023-06-22T10:25:14;30.50;93.30
20319;DHT22;10317;47.254;11.314;2023-06-22T10:27:40;30.70;93.70
20319;DHT22;10317;47.254;11.314;2023-06-22T10:30:09;30.90;91.40
20319;DHT22;10317;47.254;11.314;2023-06-22T10:32:35;31.00;90.90
20319;DHT22;10317;47.254;11.314;2023-06-22T10:35:02;31.10;91.70
20319;DHT22;10317;47.254;11.314;2023-06-22T10:37:27;31.00;91.40
20319;DHT22;10317;47.254;11.314;2023-06-22T10:39:53;30.90;91.80
20319;DHT22;10317;47.254;11.314;2023-06-22T10:42:18;30.60;92.90
20319;DHT22;10317;47.254;11.314;2023-06-22T10:44:44;30.60;94.60
20319;DHT22;10317;47.254;11.314;2023-06-22T10:47:09;30.50;96.00
20319;DHT22;10317;47.254;11.314;2023-06-22T10:49:37;30.70;94.80
20319;DHT22;10317;47.254;11.314;2023-06-22T10:52:03;30.60;90.90
20319;DHT22;10317;47.254;11.314;2023-06-22T10:54:28;30.50;92.30
20319;DHT22;10317;47.254;11.314;2023-06-22T10:56:54;30.40;93.30
20319;DHT22;10317;47.254;11.314;2023-06-22T10:59:19;30.50;94.30
20319;DHT22;10317;47.254;11.314;2023-06-22T11:01:46;30.80;94.70
20319;DHT22;10317;47.254;11.314;2023-06-22T11:04:12;30.80;94.10
20319;DHT22;10317;47.254;11.314;2023-06-22T11:06:37;30.70;94.20
20319;DHT22;10317;47.254;11.314;2023-06-22T11:09:03;30.70;94.60
20319;DHT22;10317;47.254;11.314;2023-06-22T11:11:29;30.60;93.60
20319;DHT22;10317;47.254;11.314;2023-06-22T11:13:55;30.60;92.00
20319;DHT22;10317;47.254;11.314;2023-06-22T11:16:20;30.80;92.30
20319;DHT22;10317;47.254;11.314;2023-06-22T11:18:46;30.60;93.80
20319;DHT22;10317;47.254;11.314;2023-06-22T11:21:11;30.70;94.60
20319;DHT22;10317;47.254;11.314;2023-06-22T11:23:37;30.90;95.10
20319;DHT22;10317;47.254;11.314;2023-06-22T11:26:02;30.90;95.40
20319;DHT22;10317;47.254;11.314;2023-06-22T11:28:28;30.80;94.70
20319;DHT22;10317;47.254;11.314;2023-06-22T11:30:53;30.90;95.10
20319;DHT22;10317;47.254;11.314;2023-06-22T11:33:19;31.00;95.00
20319;DHT22;10317;47.254;11.314;2023-06-22T11:35:44;31.20;95.30
20319;DHT22;10317;47.254;11.314;2023-06-22T11:38:10;31.10;93.50
20319;DHT22;10317;47.254;11.314;2023-06-22T11:40:35;31.30;93.70
20319;DHT22;10317;47.254;11.314;2023-06-22T11:43:01;31.20;95.50
20319;DHT22;10317;47.254;11.314;2023-06-22T11:45:26;31.30;92.10
20319;DHT22;10317;47.254;11.314;2023-06-22T11:47:52;31.20;91.80
20319;DHT22;10317;47.254;11.314;2023-06-22T11:50:17;31.10;92.50
20319;DHT22;10317;47.254;11.314;2023-06-22T11:52:43;31.20;92.30
20319;DHT22;10317;47.254;11.314;2023-06-22T11:55:09;31.20;92.50
20319;DHT22;10317;47.254;11.314;2023-06-22T11:57:38;31.20;94.20
20319;DHT22;10317;47.254;11.314;2023-06-22T12:00:04;31.20;96.10
20319;DHT22;10317;47.254;11.314;2023-06-22T12:02:43;31.20;93.60
20319;DHT22;10317;47.254;11.314;2023-06-22T12:05:10;31.30;94.70
20319;DHT22;10317;47.254;11.314;2023-06-22T12:07:36;31.50;96.00
20319;DHT22;10317;47.254;11.314;2023-06-22T12:10:02;31.60;94.20
20319;DHT22;10317;47.254;11.314;2023-06-22T12:12:28;31.70;89.80
20319;DHT22;10317;47.254;11.314;2023-06-22T12:14:53;31.80;91.30
20319;DHT22;10317;47.254;11.314;2023-06-22T12:17:19;31.90;89.90
20319;DHT22;10317;47.254;11.314;2023-06-22T12:19:44;31.90;88.80
20319;DHT22;10317;47.254;11.314;2023-06-22T12:22:10;32.10;91.50
20319;DHT22;10317;47.254;11.314;2023-06-22T12:24:35;32.00;91.20
20319;DHT22;10317;47.254;11.314;2023-06-22T12:27:01;31.90;91.20
20319;DHT22;10317;47.254;11.314;2023-06-22T12:29:28;32.10;92.60
20319;DHT22;10317;47.254;11.314;2023-06-22T12:31:54;32.30;92.10
20319;DHT22;10317;47.254;11.314;2023-06-22T12:34:19;32.60;82.30
20319;DHT22;10317;47.254;11.314;2023-06-22T12:36:45;32.60;80.60
20319;DHT22;10317;47.254;11.314;2023-06-22T12:39:13;32.70;75.70
20319;DHT22;10317;47.254;11.314;2023-06-22T12:41:38;32.80;81.30
20319;DHT22;10317;47.254;11.314;2023-06-22T12:44:04;32.80;86.00
20319;DHT22;10317;47.254;11.314;2023-06-22T12:46:29;32.90;84.50
20319;DHT22;10317;47.254;11.314;2023-06-22T12:49:02;32.90;81.60
20319;DHT22;10317;47.254;11.314;2023-06-22T12:51:27;32.80;85.40
20319;DHT22;10317;47.254;11.314;2023-06-22T12:53:53;32.70;83.20
20319;DHT22;10317;47.254;11.314;2023-06-22T12:56:18;32.60;88.90
20319;DHT22;10317;47.254;11.314;2023-06-22T12:58:44;32.70;84.70
20319;DHT22;10317;47.254;11.314;2023-06-22T13:01:09;32.90;83.40
20319;DHT22;10317;47.254;11.314;2023-06-22T13:03:35;33.10;75.60
20319;DHT22;10317;47.254;11.314;2023-06-22T13:06:00;33.20;72.50
20319;DHT22;10317;47.254;11.314;2023-06-22T13:08:26;33.10;73.10
20319;DHT22;10317;47.254;11.314;2023-06-22T13:10:51;33.20;59.70
20319;DHT22;10317;47.254;11.314;2023-06-22T13:13:17;33.60;53.60
20319;DHT22;10317;47.254;11.314;2023-06-22T13:15:42;33.80;54.00
20319;DHT22;10317;47.254;11.314;2023-06-22T13:18:08;33.80;53.60
20319;DHT22;10317;47.254;11.314;2023-06-22T13:20:34;33.80;54.20
20319;DHT22;10317;47.254;11.314;2023-06-22T13:22:59;33.90;49.90
20319;DHT22;10317;47.254;11.314;2023-06-22T13:25:25;34.00;47.60
20319;DHT22;10317;47.254;11.314;2023-06-22T13:27:51;34.20;46.40
20319;DHT22;10317;47.254;11.314;2023-06-22T13:30:17;34.00;55.80
20319;DHT22;10317;47.254;11.314;2023-06-22T13:32:43;33.90;68.60
20319;DHT22;10317;47.254;11.314;2023-06-22T13:35:11;33.80;60.70
20319;DHT22;10317;47.254;11.314;2023-06-22T13:37:37;33.70;53.30
20319;DHT22;10317;47.254;11.314;2023-06-22T13:40:04;33.70;53.70
20319;DHT22;10317;47.254;11.314;2023-06-22T13:42:31;33.80;51.00
20319;DHT22;10317;47.254;11.314;2023-06-22T13:44:57;33.90;55.20
20319;DHT22;10317;47.254;11.314;2023-06-22T13:47:22;34.10;49.60
20319;DHT22;10317;47.254;11.314;2023-06-22T13:49:48;34.30;47.30
20319;DHT22;10317;47.254;11.314;2023-06-22T13:52:14;34.40;48.30
20319;DHT22;10317;47.254;11.314;2023-06-22T13:54:39;34.40;53.10
20319;DHT22;10317;47.254;11.314;2023-06-22T13:57:05;34.60;45.50
20319;DHT22;10317;47.254;11.314;2023-06-22T13:59:31;34.50;43.10
20319;DHT22;10317;47.254;11.314;2023-06-22T14:01:56;34.40;45.40
20319;DHT22;10317;47.254;11.314;2023-06-22T14:04:24;34.40;50.90
20319;DHT22;10317;47.254;11.314;2023-06-22T14:06:50;34.40;53.50
20319;DHT22;10317;47.254;11.314;2023-06-22T14:09:15;34.30;52.10
20319;DHT22;10317;47.254;11.314;2023-06-22T14:11:41;34.30;44.20
20319;DHT22;10317;47.254;11.314;2023-06-22T14:14:07;34.30;45.80
20319;DHT22;10317;47.254;11.314;2023-06-22T14:16:32;34.30;50.10
20319;DHT22;10317;47.254;11.314;2023-06-22T14:18:58;34.10;56.80
20319;DHT22;10317;47.254;11.314;2023-06-22T14:21:23;33.90;62.00
20319;DHT22;10317;47.254;11.314;2023-06-22T14:23:49;33.50;68.40
20319;DHT22;10317;47.254;11.314;2023-06-22T14:26:15;33.40;65.70
20319;DHT22;10317;47.254;11.314;2023-06-22T14:28:45;33.10;64.80
20319;DHT22;10317;47.254;11.314;2023-06-22T14:31:17;33.50;55.00
20319;DHT22;10317;47.254;11.314;2023-06-22T14:33:47;33.90;51.60
20319;DHT22;10317;47.254;11.314;2023-06-22T14:36:13;34.10;50.70
20319;DHT22;10317;47.254;11.314;2023-06-22T14:38:38;34.00;66.80
20319;DHT22;10317;47.254;11.314;2023-06-22T14:41:04;34.20;53.40
20319;DHT22;10317;47.254;11.314;2023-06-22T14:43:30;34.50;51.80
20319;DHT22;10317;47.254;11.314;2023-06-22T14:45:55;34.60;43.40
20319;DHT22;10317;47.254;11.314;2023-06-22T14:48:21;34.70;46.40
20319;DHT22;10317;47.254;11.314;2023-06-22T14:50:46;34.80;41.50
20319;DHT22;10317;47.254;11.314;2023-06-22T14:53:12;35.00;48.00
20319;DHT22;10317;47.254;11.314;2023-06-22T14:55:37;35.00;45.30
20319;DHT22;10317;47.254;11.314;2023-06-22T14:58:03;35.10;41.50
20319;DHT22;10317;47.254;11.314;2023-06-22T15:00:32;35.20;41.30
20319;DHT22;10317;47.254;11.314;2023-06-22T15:02:58;35.20;41.70
20319;DHT22;10317;47.254;11.314;2023-06-22T15:05:24;35.50;43.20
20319;DHT22;10317;47.254;11.314;2023-06-22T15:07:50;35.40;44.80
20319;DHT22;10317;47.254;11.314;2023-06-22T15:10:16;35.30;44.00
20319;DHT22;10317;47.254;11.314;2023-06-22T15:12:41;35.50;47.20
20319;DHT22;10317;47.254;11.314;2023-06-22T15:15:07;35.30;40.80
20319;DHT22;10317;47.254;11.314;2023-06-22T15:17:32;35.10;44.30